sensor_id;sensor_type;location;lat;lon;timestamp;pressure;altitude;pressure_sealevel;temperature;humidity
51759;BME280;66684;47.568;18.734;2023-07-24T00:01:23;99220.75;;;19.10;100.00
51759;BME280;66684;47.568;18.734;2023-07-24T00:03:49;99213.81;;;19.06;100.00
51759;BME280;66684;47.568;18.734;2023-07-24T00:06:15;99219.03;;;19.13;100.00
51759;BME280;66684;47.568;18.734;2023-07-24T00:08:40;99212.03;;;18.94;100.00
51759;BME280;66684;47.568;18.734;2023-07-24T00:11:07;99209.44;;;18.93;100.00
51759;BME280;66684;47.568;18.734;2023-07-24T00:13:33;99208.53;;;19.15;100.00
51759;BME280;66684;47.568;18.734;2023-07-24T00:15:59;99195.47;;;19.06;100.00
51759;BME280;66684;47.568;18.734;2023-07-24T00:18:25;99200.69;;;19.24;100.00
51759;BME280;66684;47.568;18.734;2023-07-24T00:20:51;99193.69;;;19.32;100.00
51759;BME280;66684;47.568;18.734;2023-07-24T00:23:17;99194.56;;;19.33;100.00
51759;BME280;66684;47.568;18.734;2023-07-24T00:25:43;99197.19;;;19.44;100.00
51759;BME280;66684;47.568;18.734;2023-07-24T00:28:09;99189.34;;;19.07;100.00
51759;BME280;66684;47.568;18.734;2023-07-24T00:30:34;99200.72;;;19.06;100.00
51759;BME280;66684;47.568;18.734;2023-07-24T00:33:00;99193.69;;;19.28;100.00
51759;BME280;66684;47.568;18.734;2023-07-24T00:35:26;99196.31;;;19.22;100.00
51759;BME280;66684;47.568;18.734;2023-07-24T00:37:52;99191.94;;;19.28;100.00
51759;BME280;66684;47.568;18.734;2023-07-24T00:40:18;99181.50;;;19.19;100.00
51759;BME280;66684;47.568;18.734;2023-07-24T00:42:47;99184.97;;;18.91;100.00
51759;BME280;66684;47.568;18.734;2023-07-24T00:45:14;99179.75;;;18.81;100.00
51759;BME280;66684;47.568;18.734;2023-07-24T00:47:41;99177.13;;;19.10;100.00
51759;BME280;66684;47.568;18.734;2023-07-24T00:50:08;99176.25;;;19.19;100.00
51759;BME280;66684;47.568;18.734;2023-07-24T00:52:35;99175.38;;;19.25;100.00
51759;BME280;66684;47.568;18.734;2023-07-24T00:55:01;99171.88;;;19.21;100.00
51759;BME280;66684;47.568;18.734;2023-07-24T00:57:27;99170.13;;;19.22;100.00
51759;BME280;66684;47.568;18.734;2023-07-24T00:59:53;99172.72;;;19.23;100.00
51759;BME280;66684;47.568;18.734;2023-07-24T01:02:20;99171.00;;;19.25;100.00
51759;BME280;66684;47.568;18.734;2023-07-24T01:04:46;99166.62;;;19.32;100.00
51759;BME280;66684;47.568;18.734;2023-07-24T01:07:12;99176.22;;;19.34;100.00
51759;BME280;66684;47.568;18.734;2023-07-24T01:09:38;99174.50;;;19.36;100.00
51759;BME280;66684;47.568;18.734;2023-07-24T01:12:22;99170.97;;;19.50;100.00
51759;BME280;66684;47.568;18.734;2023-07-24T01:15:01;99174.47;;;19.49;100.00
51759;BME280;66684;47.568;18.734;2023-07-24T01:17:30;99178.84;;;19.28;100.00
51759;BME280;66684;47.568;18.734;2023-07-24T01:19:58;99174.47;;;19.29;100.00
51759;BME280;66684;47.568;18.734;2023-07-24T01:22:54;99179.72;;;19.39;100.00
51759;BME280;66684;47.568;18.734;2023-07-24T01:25:31;99174.47;;;19.43;100.00
51759;BME280;66684;47.568;18.734;2023-07-24T01:27:58;99174.47;;;19.43;100.00
51759;BME280;66684;47.568;18.734;2023-07-24T01:30:24;99177.97;;;19.38;100.00
51759;BME280;66684;47.568;18.734;2023-07-24T01:32:50;99168.34;;;19.40;100.00
51759;BME280;66684;47.568;18.734;2023-07-24T01:35:16;99174.47;;;19.38;100.00
51759;BME280;66684;47.568;18.734;2023-07-24T01:37:43;99168.31;;;19.48;100.00
51759;BME280;66684;47.568;18.734;2023-07-24T01:40:10;99169.22;;;19.35;100.00
51759;BME280;66684;47.568;18.734;2023-07-24T01:42:36;99164.88;;;19.34;100.00
51759;BME280;66684;47.568;18.734;2023-07-24T01:45:03;99177.97;;;19.35;100.00
51759;BME280;66684;47.568;18.734;2023-07-24T01:47:29;99169.25;;;19.21;100.00
51759;BME280;66684;47.568;18.734;2023-07-24T01:49:56;99163.13;;;19.27;100.00
51759;BME280;66684;47.568;18.734;2023-07-24T01:52:22;99166.66;;;19.09;100.00
51759;BME280;66684;47.568;18.734;2023-07-24T01:54:48;99163.16;;;19.19;100.00
51759;BME280;66684;47.568;18.734;2023-07-24T01:57:14;99166.62;;;19.17;100.00
51759;BME280;66684;47.568;18.734;2023-07-24T01:59:39;99162.28;;;19.06;100.00
51759;BME280;66684;47.568;18.734;2023-07-24T02:02:05;99168.38;;;19.10;100.00
51759;BME280;66684;47.568;18.734;2023-07-24T02:04:31;99166.66;;;19.13;100.00
51759;BME280;66684;47.568;18.734;2023-07-24T02:06:57;99164.03;;;19.09;100.00
51759;BME280;66684;47.568;18.734;2023-07-24T02:09:23;99164.91;;;19.09;100.00
51759;BME280;66684;47.568;18.734;2023-07-24T02:11:49;99158.81;;;19.06;100.00
51759;BME280;66684;47.568;18.734;2023-07-24T02:14:17;99164.03;;;19.00;100.00
51759;BME280;66684;47.568;18.734;2023-07-24T02:16:43;99168.41;;;19.05;100.00
51759;BME280;66684;47.568;18.734;2023-07-24T02:19:09;99165.78;;;18.98;100.00
51759;BME280;66684;47.568;18.734;2023-07-24T02:21:35;99164.94;;;18.99;100.00
51759;BME280;66684;47.568;18.734;2023-07-24T02:24:01;99172.78;;;19.05;100.00
51759;BME280;66684;47.568;18.734;2023-07-24T02:26:27;99169.25;;;19.03;100.00
51759;BME280;66684;47.568;18.734;2023-07-24T02:28:53;99160.53;;;18.98;100.00
51759;BME280;66684;47.568;18.734;2023-07-24T02:31:19;99164.03;;;19.01;100.00
51759;BME280;66684;47.568;18.734;2023-07-24T02:33:45;99158.78;;;18.91;100.00
51759;BME280;66684;47.568;18.734;2023-07-24T02:36:11;99157.06;;;18.90;100.00
51759;BME280;66684;47.568;18.734;2023-07-24T02:38:37;99157.94;;;18.99;100.00
51759;BME280;66684;47.568;18.734;2023-07-24T02:41:03;99160.53;;;18.76;100.00
51759;BME280;66684;47.568;18.734;2023-07-24T02:43:29;99158.81;;;18.69;100.00
51759;BME280;66684;47.568;18.734;2023-07-24T02:45:55;99165.78;;;18.82;100.00
51759;BME280;66684;47.568;18.734;2023-07-24T02:48:20;99162.28;;;19.08;100.00
51759;BME280;66684;47.568;18.734;2023-07-24T02:50:49;99161.41;;;19.04;100.00
51759;BME280;66684;47.568;18.734;2023-07-24T02:53:15;99170.16;;;19.12;100.00
51759;BME280;66684;47.568;18.734;2023-07-24T02:55:42;99164.03;;;19.20;100.00
51759;BME280;66684;47.568;18.734;2023-07-24T02:58:10;99170.16;;;18.93;100.00
51759;BME280;66684;47.568;18.734;2023-07-24T03:00:36;99167.53;;;18.90;100.00
51759;BME280;66684;47.568;18.734;2023-07-24T03:03:03;99158.81;;;18.81;100.00
51759;BME280;66684;47.568;18.734;2023-07-24T03:05:29;99157.06;;;18.99;100.00
51759;BME280;66684;47.568;18.734;2023-07-24T03:07:55;99146.56;;;18.73;100.00
51759;BME280;66684;47.568;18.734;2023-07-24T03:10:21;99149.19;;;18.83;100.00
51759;BME280;66684;47.568;18.734;2023-07-24T03:12:46;99142.22;;;18.93;100.00
51759;BME280;66684;47.568;18.734;2023-07-24T03:15:12;99139.59;;;18.98;100.00
51759;BME280;66684;47.568;18.734;2023-07-24T03:17:38;99145.72;;;18.94;100.00
51759;BME280;66684;47.568;18.734;2023-07-24T03:20:22;99145.69;;;19.15;100.00
51759;BME280;66684;47.568;18.734;2023-07-24T03:22:48;99145.69;;;19.15;100.00
51759;BME280;66684;47.568;18.734;2023-07-24T03:25:14;99143.97;;;19.00;100.00
51759;BME280;66684;47.568;18.734;2023-07-24T03:27:40;99137.88;;;18.94;100.00
51759;BME280;66684;47.568;18.734;2023-07-24T03:30:06;99137.84;;;19.06;100.00
51759;BME280;66684;47.568;18.734;2023-07-24T03:32:32;99127.38;;;19.18;100.00
51759;BME280;66684;47.568;18.734;2023-07-24T03:34:58;99125.66;;;19.05;100.00
51759;BME280;66684;47.568;18.734;2023-07-24T03:37:24;99130.88;;;19.08;100.00
51759;BME280;66684;47.568;18.734;2023-07-24T03:39:50;99134.34;;;19.10;100.00
51759;BME280;66684;47.568;18.734;2023-07-24T03:42:30;99127.38;;;19.03;100.00
51759;BME280;66684;47.568;18.734;2023-07-24T03:44:57;99129.09;;;19.10;100.00
51759;BME280;66684;47.568;18.734;2023-07-24T03:47:23;99126.50;;;18.90;100.00
51759;BME280;66684;47.568;18.734;2023-07-24T03:49:50;99138.75;;;18.99;100.00
51759;BME280;66684;47.568;18.734;2023-07-24T03:52:16;99137.84;;;19.06;100.00
51759;BME280;66684;47.568;18.734;2023-07-24T03:54:42;99136.97;;;18.92;100.00
51759;BME280;66684;47.568;18.734;2023-07-24T03:57:08;99133.50;;;18.96;100.00
51759;BME280;66684;47.568;18.734;2023-07-24T03:59:34;99135.22;;;19.03;100.00
51759;BME280;66684;47.568;18.734;2023-07-24T04:02:00;99129.12;;;19.13;100.00
51759;BME280;66684;47.568;18.734;2023-07-24T04:04:26;99135.16;;;19.39;100.00
51759;BME280;66684;47.568;18.734;2023-07-24T04:06:51;99133.44;;;19.32;100.00
51759;BME280;66684;47.568;18.734;2023-07-24T04:09:17;99132.56;;;19.27;100.00
51759;BME280;66684;47.568;18.734;2023-07-24T04:11:44;99143.06;;;19.36;100.00
51759;BME280;66684;47.568;18.734;2023-07-24T04:14:10;99141.25;;;19.48;100.00
51759;BME280;66684;47.568;18.734;2023-07-24T04:16:36;99136.88;;;19.56;100.00
51759;BME280;66684;47.568;18.734;2023-07-24T04:19:03;99141.25;;;19.63;100.00
51759;BME280;66684;47.568;18.734;2023-07-24T04:21:29;99135.97;;;19.72;100.00
51759;BME280;66684;47.568;18.734;2023-07-24T04:23:54;99141.19;;;19.78;100.00
51759;BME280;66684;47.568;18.734;2023-07-24T04:26:20;99134.16;;;19.89;100.00
51759;BME280;66684;47.568;18.734;2023-07-24T04:28:46;99138.47;;;20.01;100.00
51759;BME280;66684;47.568;18.734;2023-07-24T04:31:12;99137.59;;;19.98;100.00
51759;BME280;66684;47.568;18.734;2023-07-24T04:33:38;99135.03;;;19.93;100.00
51759;BME280;66684;47.568;18.734;2023-07-24T04:36:05;99134.09;;;20.02;100.00
51759;BME280;66684;47.568;18.734;2023-07-24T04:38:30;99141.06;;;20.06;100.00
51759;BME280;66684;47.568;18.734;2023-07-24T04:40:56;99141.94;;;20.05;100.00
51759;BME280;66684;47.568;18.734;2023-07-24T04:43:22;99129.63;;;20.17;100.00
51759;BME280;66684;47.568;18.734;2023-07-24T04:45:48;99138.31;;;20.29;100.00
51759;BME280;66684;47.568;18.734;2023-07-24T04:48:14;99141.81;;;20.29;100.00
51759;BME280;66684;47.568;18.734;2023-07-24T04:50:40;99142.63;;;20.36;100.00
51759;BME280;66684;47.568;18.734;2023-07-24T04:53:06;99137.34;;;20.43;100.00
51759;BME280;66684;47.568;18.734;2023-07-24T04:55:31;99142.59;;;20.43;100.00
51759;BME280;66684;47.568;18.734;2023-07-24T04:57:57;99133.84;;;20.51;100.00
51759;BME280;66684;47.568;18.734;2023-07-24T05:00:23;99143.47;;;20.50;100.00
51759;BME280;66684;47.568;18.734;2023-07-24T05:02:50;99141.66;;;20.57;100.00
51759;BME280;66684;47.568;18.734;2023-07-24T05:05:16;99144.25;;;20.60;100.00
51759;BME280;66684;47.568;18.734;2023-07-24T05:07:42;99151.19;;;20.67;100.00
51759;BME280;66684;47.568;18.734;2023-07-24T05:10:07;99140.66;;;20.76;100.00
51759;BME280;66684;47.568;18.734;2023-07-24T05:12:33;99142.38;;;20.77;100.00
51759;BME280;66684;47.568;18.734;2023-07-24T05:14:59;99149.28;;;20.90;100.00
51759;BME280;66684;47.568;18.734;2023-07-24T05:17:25;99144.03;;;20.90;100.00
51759;BME280;66684;47.568;18.734;2023-07-24T05:19:51;99144.84;;;20.95;100.00
51759;BME280;66684;47.568;18.734;2023-07-24T05:22:17;99145.75;;;20.94;100.00
51759;BME280;66684;47.568;18.734;2023-07-24T05:24:43;99144.75;;;21.05;100.00
51759;BME280;66684;47.568;18.734;2023-07-24T05:27:09;99138.41;;;21.30;100.00
51759;BME280;66684;47.568;18.734;2023-07-24T05:29:35;99145.53;;;21.19;100.00
51759;BME280;66684;47.568;18.734;2023-07-24T05:32:00;99150.69;;;21.28;100.00
51759;BME280;66684;47.568;18.734;2023-07-24T05:34:26;99145.44;;;21.28;100.00
51759;BME280;66684;47.568;18.734;2023-07-24T05:36:52;99140.16;;;21.33;100.00
51759;BME280;66684;47.568;18.734;2023-07-24T05:39:18;99136.47;;;21.50;100.00
51759;BME280;66684;47.568;18.734;2023-07-24T05:41:44;99134.63;;;21.55;100.00
51759;BME280;66684;47.568;18.734;2023-07-24T05:44:10;99141.44;;;21.73;100.00
51759;BME280;66684;47.568;18.734;2023-07-24T05:46:36;99143.16;;;21.77;100.00
51759;BME280;66684;47.568;18.734;2023-07-24T05:49:01;99141.44;;;21.75;100.00
51759;BME280;66684;47.568;18.734;2023-07-24T05:51:28;99131.00;;;21.69;100.00
51759;BME280;66684;47.568;18.734;2023-07-24T05:53:53;99126.50;;;21.78;100.00
51759;BME280;66684;47.568;18.734;2023-07-24T05:56:19;99127.34;;;21.82;100.00
51759;BME280;66684;47.568;18.734;2023-07-24T05:58:45;99130.81;;;21.84;100.00
51759;BME280;66684;47.568;18.734;2023-07-24T06:01:11;99128.84;;;21.98;100.00
51759;BME280;66684;47.568;18.734;2023-07-24T06:03:37;99120.78;;;22.15;100.00
51759;BME280;66684;47.568;18.734;2023-07-24T06:06:04;99121.59;;;22.19;100.00
51759;BME280;66684;47.568;18.734;2023-07-24T06:08:30;99121.72;;;22.13;100.00
51759;BME280;66684;47.568;18.734;2023-07-24T06:10:56;99119.91;;;22.15;100.00
51759;BME280;66684;47.568;18.734;2023-07-24T06:13:22;99119.75;;;22.27;100.00
51759;BME280;66684;47.568;18.734;2023-07-24T06:15:49;99124.03;;;22.31;100.00
51759;BME280;66684;47.568;18.734;2023-07-24T06:18:15;99123.16;;;22.33;100.00
51759;BME280;66684;47.568;18.734;2023-07-24T06:20:41;99124.63;;;22.51;100.00
51759;BME280;66684;47.568;18.734;2023-07-24T06:23:07;99131.47;;;22.61;100.00
51759;BME280;66684;47.568;18.734;2023-07-24T06:25:33;99119.19;;;22.64;100.00
51759;BME280;66684;47.568;18.734;2023-07-24T06:27:59;99120.66;;;22.80;100.00
51759;BME280;66684;47.568;18.734;2023-07-24T06:30:25;99122.22;;;22.93;100.00
51759;BME280;66684;47.568;18.734;2023-07-24T06:32:51;99127.38;;;22.99;100.00
51759;BME280;66684;47.568;18.734;2023-07-24T06:35:17;99127.16;;;23.11;100.00
51759;BME280;66684;47.568;18.734;2023-07-24T06:37:43;99125.97;;;23.29;100.00
51759;BME280;66684;47.568;18.734;2023-07-24T06:40:09;99127.06;;;23.18;100.00
51759;BME280;66684;47.568;18.734;2023-07-24T06:42:35;99123.53;;;23.19;100.00
51759;BME280;66684;47.568;18.734;2023-07-24T06:45:01;99128.41;;;23.40;100.00
51759;BME280;66684;47.568;18.734;2023-07-24T06:47:27;99131.81;;;23.47;100.00
51759;BME280;66684;47.568;18.734;2023-07-24T06:49:53;99128.09;;;23.55;100.00
51759;BME280;66684;47.568;18.734;2023-07-24T06:52:19;99124.63;;;23.53;100.00
51759;BME280;66684;47.568;18.734;2023-07-24T06:54:45;99123.59;;;23.62;100.00
51759;BME280;66684;47.568;18.734;2023-07-24T06:57:11;99120.88;;;23.66;100.00
51759;BME280;66684;47.568;18.734;2023-07-24T06:59:37;99117.22;;;23.74;100.00
51759;BME280;66684;47.568;18.734;2023-07-24T07:02:03;99117.41;;;23.64;100.00
51759;BME280;66684;47.568;18.734;2023-07-24T07:04:29;99115.34;;;23.79;100.00
51759;BME280;66684;47.568;18.734;2023-07-24T07:06:55;99111.03;;;23.76;100.00
51759;BME280;66684;47.568;18.734;2023-07-24T07:09:21;99109.81;;;23.91;100.00
51759;BME280;66684;47.568;18.734;2023-07-24T07:11:47;99098.38;;;23.92;100.00
51759;BME280;66684;47.568;18.734;2023-07-24T07:14:12;99099.09;;;23.99;100.00
51759;BME280;66684;47.568;18.734;2023-07-24T07:16:38;99095.53;;;24.01;100.00
51759;BME280;66684;47.568;18.734;2023-07-24T07:19:05;99102.28;;;24.14;100.00
51759;BME280;66684;47.568;18.734;2023-07-24T07:21:30;99102.00;;;24.27;100.00
51759;BME280;66684;47.568;18.734;2023-07-24T07:23:56;99095.88;;;24.25;100.00
51759;BME280;66684;47.568;18.734;2023-07-24T07:26:22;99099.13;;;24.37;100.00
51759;BME280;66684;47.568;18.734;2023-07-24T07:28:48;99095.34;;;24.49;100.00
51759;BME280;66684;47.568;18.734;2023-07-24T07:31:14;99092.25;;;24.67;100.00
51759;BME280;66684;47.568;18.734;2023-07-24T07:33:40;99092.03;;;24.77;100.00
51759;BME280;66684;47.568;18.734;2023-07-24T07:36:06;99089.44;;;24.73;100.00
51759;BME280;66684;47.568;18.734;2023-07-24T07:38:32;99099.06;;;24.78;100.00
51759;BME280;66684;47.568;18.734;2023-07-24T07:40:58;99102.25;;;24.89;100.00
51759;BME280;66684;47.568;18.734;2023-07-24T07:43:24;99099.44;;;24.96;100.00
51759;BME280;66684;47.568;18.734;2023-07-24T07:45:50;99089.28;;;25.15;100.00
51759;BME280;66684;47.568;18.734;2023-07-24T07:48:15;99083.19;;;25.12;100.00
51759;BME280;66684;47.568;18.734;2023-07-24T07:50:41;99090.00;;;25.20;100.00
51759;BME280;66684;47.568;18.734;2023-07-24T07:53:07;99093.91;;;25.40;100.00
51759;BME280;66684;47.568;18.734;2023-07-24T07:55:33;99102.16;;;25.60;100.00
51759;BME280;66684;47.568;18.734;2023-07-24T07:57:59;99089.66;;;25.65;100.00
51759;BME280;66684;47.568;18.734;2023-07-24T08:00:25;99090.97;;;25.81;100.00
51759;BME280;66684;47.568;18.734;2023-07-24T08:02:51;99100.50;;;25.87;100.00
51759;BME280;66684;47.568;18.734;2023-07-24T08:05:17;99086.03;;;25.99;100.00
51759;BME280;66684;47.568;18.734;2023-07-24T08:07:43;99081.28;;;26.10;100.00
51759;BME280;66684;47.568;18.734;2023-07-24T08:10:09;99081.03;;;26.18;100.00
51759;BME280;66684;47.568;18.734;2023-07-24T08:12:35;99077.16;;;26.29;99.92
51759;BME280;66684;47.568;18.734;2023-07-24T08:15:00;99080.72;;;26.28;99.12
51759;BME280;66684;47.568;18.734;2023-07-24T08:17:26;99072.03;;;26.23;100.00
51759;BME280;66684;47.568;18.734;2023-07-24T08:19:52;99073.16;;;26.44;98.90
51759;BME280;66684;47.568;18.734;2023-07-24T08:22:18;99069.25;;;26.56;99.78
51759;BME280;66684;47.568;18.734;2023-07-24T08:24:45;99066.19;;;26.42;98.74
51759;BME280;66684;47.568;18.734;2023-07-24T08:27:11;99071.09;;;26.54;97.01
51759;BME280;66684;47.568;18.734;2023-07-24T08:29:37;99065.78;;;26.54;94.89
51759;BME280;66684;47.568;18.734;2023-07-24T08:32:04;99078.44;;;26.72;97.88
51759;BME280;66684;47.568;18.734;2023-07-24T08:34:31;99060.09;;;26.66;98.12
51759;BME280;66684;47.568;18.734;2023-07-24T08:36:57;99070.00;;;26.86;98.07
51759;BME280;66684;47.568;18.734;2023-07-24T08:39:22;99065.31;;;26.68;95.83
51759;BME280;66684;47.568;18.734;2023-07-24T08:41:48;99059.28;;;26.89;97.02
51759;BME280;66684;47.568;18.734;2023-07-24T08:44:14;99057.25;;;26.97;95.55
51759;BME280;66684;47.568;18.734;2023-07-24T08:46:42;99052.22;;;27.14;96.84
51759;BME280;66684;47.568;18.734;2023-07-24T08:49:12;99063.16;;;27.30;93.76
51759;BME280;66684;47.568;18.734;2023-07-24T08:51:40;99051.88;;;27.49;92.38
51759;BME280;66684;47.568;18.734;2023-07-24T08:54:06;99046.56;;;27.49;93.32
51759;BME280;66684;47.568;18.734;2023-07-24T08:56:33;99045.59;;;27.51;89.66
51759;BME280;66684;47.568;18.734;2023-07-24T08:58:59;99034.66;;;27.59;88.42
51759;BME280;66684;47.568;18.734;2023-07-24T09:01:25;99031.91;;;27.62;87.42
51759;BME280;66684;47.568;18.734;2023-07-24T09:03:51;99036.31;;;27.86;84.56
51759;BME280;66684;47.568;18.734;2023-07-24T09:06:17;99034.13;;;27.98;87.71
51759;BME280;66684;47.568;18.734;2023-07-24T09:08:43;99034.25;;;28.16;85.30
51759;BME280;66684;47.568;18.734;2023-07-24T09:11:10;99032.87;;;28.06;76.25
51759;BME280;66684;47.568;18.734;2023-07-24T09:13:41;99033.13;;;28.22;76.19
51759;BME280;66684;47.568;18.734;2023-07-24T09:16:08;99025.50;;;28.36;75.37
51759;BME280;66684;47.568;18.734;2023-07-24T09:18:41;99026.28;;;28.38;72.89
51759;BME280;66684;47.568;18.734;2023-07-24T09:21:07;99034.50;;;28.54;72.63
51759;BME280;66684;47.568;18.734;2023-07-24T09:23:33;99022.84;;;28.36;71.10
51759;BME280;66684;47.568;18.734;2023-07-24T09:26:05;99018.22;;;28.41;71.65
51759;BME280;66684;47.568;18.734;2023-07-24T09:28:32;99013.31;;;28.73;68.51
51759;BME280;66684;47.568;18.734;2023-07-24T09:30:59;99009.31;;;28.83;71.75
51759;BME280;66684;47.568;18.734;2023-07-24T09:33:35;99009.22;;;28.86;69.16
51759;BME280;66684;47.568;18.734;2023-07-24T09:36:03;99002.97;;;29.08;67.24
51759;BME280;66684;47.568;18.734;2023-07-24T09:38:29;98992.12;;;29.51;65.40
51759;BME280;66684;47.568;18.734;2023-07-24T09:40:56;98990.44;;;29.30;69.18
51759;BME280;66684;47.568;18.734;2023-07-24T09:43:27;98990.03;;;29.19;64.42
51759;BME280;66684;47.568;18.734;2023-07-24T09:45:55;98982.38;;;29.32;63.08
51759;BME280;66684;47.568;18.734;2023-07-24T09:48:23;98982.25;;;29.53;64.58
51759;BME280;66684;47.568;18.734;2023-07-24T09:50:54;98978.00;;;29.87;63.11
51759;BME280;66684;47.568;18.734;2023-07-24T09:53:37;98972.09;;;29.99;63.00
51759;BME280;66684;47.568;18.734;2023-07-24T09:56:06;98975.22;;;30.07;62.16
51759;BME280;66684;47.568;18.734;2023-07-24T09:58:34;98964.03;;;29.82;60.15
51759;BME280;66684;47.568;18.734;2023-07-24T10:01:05;98966.75;;;29.99;60.81
51759;BME280;66684;47.568;18.734;2023-07-24T10:03:35;98959.75;;;30.16;58.25
51759;BME280;66684;47.568;18.734;2023-07-24T10:06:04;98961.34;;;30.20;58.45
51759;BME280;66684;47.568;18.734;2023-07-24T10:08:30;98956.22;;;30.15;58.25
51759;BME280;66684;47.568;18.734;2023-07-24T10:10:58;98952.72;;;30.32;58.82
51759;BME280;66684;47.568;18.734;2023-07-24T10:13:26;98950.75;;;30.53;56.87
51759;BME280;66684;47.568;18.734;2023-07-24T10:15:53;98943.66;;;30.71;55.60
51759;BME280;66684;47.568;18.734;2023-07-24T10:18:26;98940.81;;;30.56;54.23
51759;BME280;66684;47.568;18.734;2023-07-24T10:21:07;98941.13;;;30.50;52.63
51759;BME280;66684;47.568;18.734;2023-07-24T10:23:39;98929.38;;;30.37;52.72
51759;BME280;66684;47.568;18.734;2023-07-24T10:26:07;98927.66;;;30.71;54.56
51759;BME280;66684;47.568;18.734;2023-07-24T10:28:35;98925.09;;;30.85;53.02
51759;BME280;66684;47.568;18.734;2023-07-24T10:31:05;98920.16;;;30.95;52.14
51759;BME280;66684;47.568;18.734;2023-07-24T10:33:43;98917.78;;;31.06;53.48
51759;BME280;66684;47.568;18.734;2023-07-24T10:36:09;98927.00;;;30.83;51.73
51759;BME280;66684;47.568;18.734;2023-07-24T10:38:37;98905.03;;;30.78;51.76
51759;BME280;66684;47.568;18.734;2023-07-24T10:41:05;98917.94;;;30.70;51.93
51759;BME280;66684;47.568;18.734;2023-07-24T10:43:43;98912.56;;;30.87;50.88
51759;BME280;66684;47.568;18.734;2023-07-24T10:46:09;98911.03;;;30.99;50.94
51759;BME280;66684;47.568;18.734;2023-07-24T10:48:36;98907.97;;;31.06;50.87
51759;BME280;66684;47.568;18.734;2023-07-24T10:51:06;98905.91;;;31.11;50.39
51759;BME280;66684;47.568;18.734;2023-07-24T10:53:34;98893.00;;;31.20;49.57
51759;BME280;66684;47.568;18.734;2023-07-24T10:56:00;98895.09;;;31.46;50.14
51759;BME280;66684;47.568;18.734;2023-07-24T10:58:26;98886.66;;;31.54;49.65
51759;BME280;66684;47.568;18.734;2023-07-24T11:00:52;98873.03;;;31.58;47.45
51759;BME280;66684;47.568;18.734;2023-07-24T11:03:19;98864.78;;;31.79;48.00
51759;BME280;66684;47.568;18.734;2023-07-24T11:05:46;98867.59;;;31.76;48.79
51759;BME280;66684;47.568;18.734;2023-07-24T11:08:16;98866.31;;;31.83;48.80
51759;BME280;66684;47.568;18.734;2023-07-24T11:10:47;98867.16;;;31.67;47.34
51759;BME280;66684;47.568;18.734;2023-07-24T11:13:14;98857.13;;;31.41;47.19
51759;BME280;66684;47.568;18.734;2023-07-24T11:15:40;98855.78;;;31.16;49.17
51759;BME280;66684;47.568;18.734;2023-07-24T11:18:05;98865.25;;;31.06;49.60
51759;BME280;66684;47.568;18.734;2023-07-24T11:23:09;98856.47;;;31.67;49.14
51759;BME280;66684;47.568;18.734;2023-07-24T11:25:37;98848.03;;;31.91;49.84
51759;BME280;66684;47.568;18.734;2023-07-24T11:28:05;98828.91;;;31.83;48.03
51759;BME280;66684;47.568;18.734;2023-07-24T11:30:31;98824.47;;;31.98;46.68
51759;BME280;66684;47.568;18.734;2023-07-24T11:32:59;98823.62;;;32.11;48.70
51759;BME280;66684;47.568;18.734;2023-07-24T11:35:26;98813.53;;;32.31;47.44
51759;BME280;66684;47.568;18.734;2023-07-24T11:37:52;98806.25;;;32.48;46.33
51759;BME280;66684;47.568;18.734;2023-07-24T11:40:18;98806.25;;;32.34;46.51
51759;BME280;66684;47.568;18.734;2023-07-24T11:42:48;98790.97;;;32.36;46.11
51759;BME280;66684;47.568;18.734;2023-07-24T11:45:15;98781.47;;;32.31;44.58
51759;BME280;66684;47.568;18.734;2023-07-24T11:47:48;98779.03;;;32.42;45.82
51759;BME280;66684;47.568;18.734;2023-07-24T11:50:16;98779.75;;;32.30;45.12
51759;BME280;66684;47.568;18.734;2023-07-24T11:52:49;98777.97;;;32.59;44.47
51759;BME280;66684;47.568;18.734;2023-07-24T11:55:20;98778.47;;;32.51;43.95
51759;BME280;66684;47.568;18.734;2023-07-24T11:57:59;98767.00;;;32.63;43.65
51759;BME280;66684;47.568;18.734;2023-07-24T12:00:26;98758.41;;;32.58;44.02
51759;BME280;66684;47.568;18.734;2023-07-24T12:02:52;98764.31;;;32.78;43.62
51759;BME280;66684;47.568;18.734;2023-07-24T12:05:18;98772.81;;;32.70;44.03
51759;BME280;66684;47.568;18.734;2023-07-24T12:07:44;98756.84;;;32.83;44.74
51759;BME280;66684;47.568;18.734;2023-07-24T12:10:13;98755.09;;;33.10;41.89
51759;BME280;66684;47.568;18.734;2023-07-24T12:15:05;98742.91;;;32.78;41.79
51759;BME280;66684;47.568;18.734;2023-07-24T12:17:31;98745.78;;;32.32;43.92
51759;BME280;66684;47.568;18.734;2023-07-24T12:19:57;98741.59;;;32.42;43.67
51759;BME280;66684;47.568;18.734;2023-07-24T12:22:23;98736.00;;;32.73;43.80
51759;BME280;66684;47.568;18.734;2023-07-24T12:24:49;98733.88;;;33.07;43.78
51759;BME280;66684;47.568;18.734;2023-07-24T12:27:14;98731.03;;;33.23;44.02
51759;BME280;66684;47.568;18.734;2023-07-24T12:29:40;98742.00;;;33.06;43.15
51759;BME280;66684;47.568;18.734;2023-07-24T12:32:06;98738.72;;;32.88;43.00
51759;BME280;66684;47.568;18.734;2023-07-24T12:34:32;98726.59;;;33.09;43.43
51759;BME280;66684;47.568;18.734;2023-07-24T12:36:58;98729.97;;;32.98;43.45
51759;BME280;66684;47.568;18.734;2023-07-24T12:39:24;98716.12;;;32.92;42.33
51759;BME280;66684;47.568;18.734;2023-07-24T12:41:50;98712.47;;;33.07;43.00
51759;BME280;66684;47.568;18.734;2023-07-24T12:44:15;98715.22;;;33.06;42.07
51759;BME280;66684;47.568;18.734;2023-07-24T12:46:41;98705.47;;;33.32;42.80